sensor_id;sensor_type;location;lat;lon;timestamp;P1;durP1;ratioP1;P2;durP2;ratioP2
70942;SDS011;59154;51.970;5.650;2022-08-19T00:00:04;10.3;;;9.3;;
70942;SDS011;59154;51.970;5.650;2022-08-19T00:05:03;9.5;;;8.6;;
70942;SDS011;59154;51.970;5.650;2022-08-19T00:10:03;9.6;;;8.6;;
70942;SDS011;59154;51.970;5.650;2022-08-19T00:15:02;9.7;;;8.6;;
70942;SDS011;59154;51.970;5.650;2022-08-19T00:20:03;10.5;;;9.4;;
70942;SDS011;59154;51.970;5.650;2022-08-19T00:25:02;10.8;;;9.7;;
70942;SDS011;59154;51.970;5.650;2022-08-19T00:30:03;12.1;;;10.9;;
70942;SDS011;59154;51.970;5.650;2022-08-19T00:35:02;13.1;;;10.1;;
70942;SDS011;59154;51.970;5.650;2022-08-19T00:40:04;10.3;;;9.3;;
70942;SDS011;59154;51.970;5.650;2022-08-19T00:45:02;10.2;;;9.2;;
70942;SDS011;59154;51.970;5.650;2022-08-19T00:50:03;10.7;;;9.6;;
70942;SDS011;59154;51.970;5.650;2022-08-19T00:55:03;10.9;;;9.9;;
70942;SDS011;59154;51.970;5.650;2022-08-19T01:00:04;10.4;;;9.4;;
70942;SDS011;59154;51.970;5.650;2022-08-19T01:05:04;11.2;;;10.1;;
70942;SDS011;59154;51.970;5.650;2022-08-19T01:10:03;10.2;;;9.2;;
70942;SDS011;59154;51.970;5.650;2022-08-19T01:15:02;10.6;;;9.6;;
70942;SDS011;59154;51.970;5.650;2022-08-19T01:20:03;10.0;;;9.1;;
70942;SDS011;59154;51.970;5.650;2022-08-19T01:25:02;10.0;;;9.1;;
70942;SDS011;59154;51.970;5.650;2022-08-19T01:30:02;10.5;;;9.4;;
70942;SDS011;59154;51.970;5.650;2022-08-19T01:35:03;10.1;;;9.1;;
70942;SDS011;59154;51.970;5.650;2022-08-19T01:40:03;10.3;;;9.3;;
70942;SDS011;59154;51.970;5.650;2022-08-19T01:45:03;10.1;;;9.1;;
70942;SDS011;59154;51.970;5.650;2022-08-19T01:50:04;8.7;;;7.8;;
70942;SDS011;59154;51.970;5.650;2022-08-19T01:55:03;8.0;;;7.3;;
70942;SDS011;59154;51.970;5.650;2022-08-19T02:00:04;7.4;;;6.7;;
70942;SDS011;59154;51.970;5.650;2022-08-19T02:05:04;7.7;;;6.9;;
70942;SDS011;59154;51.970;5.650;2022-08-19T02:10:03;9.4;;;8.4;;
70942;SDS011;59154;51.970;5.650;2022-08-19T02:15:03;9.4;;;8.5;;
70942;SDS011;59154;51.970;5.650;2022-08-19T02:20:03;9.9;;;8.9;;
70942;SDS011;59154;51.970;5.650;2022-08-19T02:25:03;9.4;;;8.5;;
70942;SDS011;59154;51.970;5.650;2022-08-19T02:30:03;9.5;;;8.1;;
70942;SDS011;59154;51.970;5.650;2022-08-19T02:35:02;9.3;;;8.4;;
70942;SDS011;59154;51.970;5.650;2022-08-19T02:40:03;8.9;;;8.0;;
70942;SDS011;59154;51.970;5.650;2022-08-19T02:45:03;7.4;;;6.7;;
70942;SDS011;59154;51.970;5.650;2022-08-19T02:50:03;7.6;;;6.9;;
70942;SDS011;59154;51.970;5.650;2022-08-19T02:55:02;7.3;;;5.8;;
70942;SDS011;59154;51.970;5.650;2022-08-19T03:00:04;6.1;;;5.5;;
70942;SDS011;59154;51.970;5.650;2022-08-19T03:05:03;7.6;;;6.9;;
70942;SDS011;59154;51.970;5.650;2022-08-19T03:10:02;8.2;;;7.1;;
70942;SDS011;59154;51.970;5.650;2022-08-19T03:15:03;7.9;;;7.1;;
70942;SDS011;59154;51.970;5.650;2022-08-19T03:20:04;7.5;;;6.8;;
70942;SDS011;59154;51.970;5.650;2022-08-19T03:25:02;7.5;;;6.7;;
70942;SDS011;59154;51.970;5.650;2022-08-19T03:30:02;7.8;;;7.0;;
70942;SDS011;59154;51.970;5.650;2022-08-19T03:35:02;8.2;;;7.3;;
70942;SDS011;59154;51.970;5.650;2022-08-19T03:40:03;7.9;;;7.0;;
70942;SDS011;59154;51.970;5.650;2022-08-19T03:45:02;7.6;;;6.7;;
70942;SDS011;59154;51.970;5.650;2022-08-19T03:50:03;8.1;;;7.3;;
70942;SDS011;59154;51.970;5.650;2022-08-19T03:55:02;8.6;;;7.0;;
70942;SDS011;59154;51.970;5.650;2022-08-19T04:00:04;9.4;;;8.4;;
70942;SDS011;59154;51.970;5.650;2022-08-19T04:05:03;9.2;;;8.3;;
70942;SDS011;59154;51.970;5.650;2022-08-19T04:10:03;10.3;;;8.7;;
70942;SDS011;59154;51.970;5.650;2022-08-19T04:15:03;9.9;;;8.8;;
70942;SDS011;59154;51.970;5.650;2022-08-19T04:20:03;8.6;;;7.7;;
70942;SDS011;59154;51.970;5.650;2022-08-19T04:25:03;9.5;;;7.9;;
70942;SDS011;59154;51.970;5.650;2022-08-19T04:30:02;9.5;;;8.5;;
70942;SDS011;59154;51.970;5.650;2022-08-19T04:35:02;10.0;;;9.1;;
70942;SDS011;59154;51.970;5.650;2022-08-19T04:40:04;9.8;;;8.8;;
70942;SDS011;59154;51.970;5.650;2022-08-19T04:45:02;10.8;;;8.1;;
70942;SDS011;59154;51.970;5.650;2022-08-19T04:50:02;9.9;;;8.4;;
70942;SDS011;59154;51.970;5.650;2022-08-19T04:55:03;10.6;;;8.6;;
70942;SDS011;59154;51.970;5.650;2022-08-19T05:00:03;10.3;;;9.3;;
70942;SDS011;59154;51.970;5.650;2022-08-19T05:05:02;10.7;;;9.6;;
70942;SDS011;59154;51.970;5.650;2022-08-19T05:10:03;11.0;;;9.9;;
70942;SDS011;59154;51.970;5.650;2022-08-19T05:15:02;11.6;;;10.4;;
70942;SDS011;59154;51.970;5.650;2022-08-19T05:20:03;11.3;;;9.2;;
70942;SDS011;59154;51.970;5.650;2022-08-19T05:25:03;12.5;;;11.3;;
70942;SDS011;59154;51.970;5.650;2022-08-19T05:30:02;11.8;;;10.6;;
70942;SDS011;59154;51.970;5.650;2022-08-19T05:35:02;13.2;;;11.7;;
70942;SDS011;59154;51.970;5.650;2022-08-19T05:40:03;12.9;;;11.5;;
70942;SDS011;59154;51.970;5.650;2022-08-19T05:45:03;12.9;;;11.5;;
70942;SDS011;59154;51.970;5.650;2022-08-19T05:50:03;14.3;;;12.8;;
70942;SDS011;59154;51.970;5.650;2022-08-19T05:55:02;25.4;;;12.5;;
70942;SDS011;59154;51.970;5.650;2022-08-19T06:00:04;15.4;;;11.6;;
70942;SDS011;59154;51.970;5.650;2022-08-19T06:05:03;15.7;;;13.0;;
70942;SDS011;59154;51.970;5.650;2022-08-19T06:10:03;15.6;;;13.9;;
70942;SDS011;59154;51.970;5.650;2022-08-19T06:15:03;18.1;;;15.8;;
70942;SDS011;59154;51.970;5.650;2022-08-19T06:20:03;17.3;;;15.5;;
70942;SDS011;59154;51.970;5.650;2022-08-19T06:25:03;23.0;;;19.1;;
70942;SDS011;59154;51.970;5.650;2022-08-19T06:30:03;20.3;;;18.0;;
70942;SDS011;59154;51.970;5.650;2022-08-19T06:35:02;32.4;;;23.5;;
70942;SDS011;59154;51.970;5.650;2022-08-19T06:40:04;31.6;;;25.6;;
70942;SDS011;59154;51.970;5.650;2022-08-19T06:45:02;30.5;;;25.9;;
70942;SDS011;59154;51.970;5.650;2022-08-19T06:50:02;30.8;;;26.8;;
70942;SDS011;59154;51.970;5.650;2022-08-19T06:55:02;35.7;;;28.4;;
70942;SDS011;59154;51.970;5.650;2022-08-19T07:00:03;38.1;;;30.1;;
70942;SDS011;59154;51.970;5.650;2022-08-19T07:05:03;41.3;;;32.3;;
70942;SDS011;59154;51.970;5.650;2022-08-19T07:10:03;39.3;;;31.3;;
70942;SDS011;59154;51.970;5.650;2022-08-19T07:15:03;43.2;;;32.6;;
70942;SDS011;59154;51.970;5.650;2022-08-19T07:20:03;43.6;;;32.8;;
70942;SDS011;59154;51.970;5.650;2022-08-19T07:25:02;43.3;;;33.1;;
70942;SDS011;59154;51.970;5.650;2022-08-19T07:30:03;46.3;;;33.6;;
70942;SDS011;59154;51.970;5.650;2022-08-19T07:35:02;45.6;;;34.4;;
70942;SDS011;59154;51.970;5.650;2022-08-19T07:40:04;44.7;;;34.5;;
70942;SDS011;59154;51.970;5.650;2022-08-19T07:45:03;42.8;;;33.7;;
70942;SDS011;59154;51.970;5.650;2022-08-19T07:50:03;42.3;;;32.9;;
70942;SDS011;59154;51.970;5.650;2022-08-19T07:55:02;38.6;;;32.9;;
70942;SDS011;59154;51.970;5.650;2022-08-19T08:00:03;39.1;;;31.2;;
70942;SDS011;59154;51.970;5.650;2022-08-19T08:05:02;41.4;;;31.3;;
70942;SDS011;59154;51.970;5.650;2022-08-19T08:10:03;38.9;;;28.9;;
70942;SDS011;59154;51.970;5.650;2022-08-19T08:15:05;30.4;;;27.0;;
70942;SDS011;59154;51.970;5.650;2022-08-19T08:20:04;33.8;;;27.6;;
70942;SDS011;59154;51.970;5.650;2022-08-19T08:25:03;38.0;;;29.3;;
70942;SDS011;59154;51.970;5.650;2022-08-19T08:30:03;33.2;;;26.3;;
70942;SDS011;59154;51.970;5.650;2022-08-19T08:35:03;31.4;;;27.3;;
70942;SDS011;59154;51.970;5.650;2022-08-19T08:40:03;30.0;;;25.6;;
70942;SDS011;59154;51.970;5.650;2022-08-19T08:45:02;30.7;;;23.5;;
70942;SDS011;59154;51.970;5.650;2022-08-19T08:50:05;29.0;;;23.9;;
70942;SDS011;59154;51.970;5.650;2022-08-19T08:55:04;25.4;;;22.0;;
70942;SDS011;59154;51.970;5.650;2022-08-19T09:00:06;24.2;;;20.7;;
70942;SDS011;59154;51.970;5.650;2022-08-19T09:05:02;22.5;;;20.0;;
70942;SDS011;59154;51.970;5.650;2022-08-19T09:10:04;24.3;;;19.4;;
70942;SDS011;59154;51.970;5.650;2022-08-19T09:15:04;24.9;;;18.3;;
70942;SDS011;59154;51.970;5.650;2022-08-19T09:20:04;18.7;;;16.7;;
70942;SDS011;59154;51.970;5.650;2022-08-19T09:25:03;19.9;;;17.8;;
70942;SDS011;59154;51.970;5.650;2022-08-19T09:30:03;19.6;;;17.3;;
70942;SDS011;59154;51.970;5.650;2022-08-19T09:35:02;18.9;;;16.5;;
70942;SDS011;59154;51.970;5.650;2022-08-19T09:40:04;21.3;;;17.3;;
70942;SDS011;59154;51.970;5.650;2022-08-19T09:45:03;19.1;;;16.2;;
70942;SDS011;59154;51.970;5.650;2022-08-19T09:50:03;17.9;;;15.9;;
70942;SDS011;59154;51.970;5.650;2022-08-19T09:55:03;19.5;;;17.0;;
70942;SDS011;59154;51.970;5.650;2022-08-19T10:00:03;21.7;;;16.5;;
70942;SDS011;59154;51.970;5.650;2022-08-19T10:05:02;21.9;;;17.6;;
70942;SDS011;59154;51.970;5.650;2022-08-19T10:10:03;21.7;;;17.5;;
70942;SDS011;59154;51.970;5.650;2022-08-19T10:15:02;23.0;;;17.4;;
70942;SDS011;59154;51.970;5.650;2022-08-19T10:20:03;20.4;;;16.6;;
70942;SDS011;59154;51.970;5.650;2022-08-19T10:25:03;20.1;;;16.8;;
70942;SDS011;59154;51.970;5.650;2022-08-19T10:30:03;19.0;;;15.6;;
70942;SDS011;59154;51.970;5.650;2022-08-19T10:35:02;20.6;;;16.8;;
70942;SDS011;59154;51.970;5.650;2022-08-19T10:40:03;19.3;;;16.1;;
70942;SDS011;59154;51.970;5.650;2022-08-19T10:45:02;19.8;;;15.4;;
70942;SDS011;59154;51.970;5.650;2022-08-19T10:50:03;21.0;;;15.9;;
70942;SDS011;59154;51.970;5.650;2022-08-19T10:55:03;17.4;;;14.4;;
70942;SDS011;59154;51.970;5.650;2022-08-19T11:00:03;14.5;;;12.1;;
70942;SDS011;59154;51.970;5.650;2022-08-19T11:05:02;17.1;;;14.0;;
70942;SDS011;59154;51.970;5.650;2022-08-19T11:10:03;14.7;;;13.2;;
70942;SDS011;59154;51.970;5.650;2022-08-19T11:15:02;18.9;;;14.7;;
70942;SDS011;59154;51.970;5.650;2022-08-19T11:20:03;15.1;;;13.5;;
70942;SDS011;59154;51.970;5.650;2022-08-19T11:25:02;17.4;;;13.7;;
70942;SDS011;59154;51.970;5.650;2022-08-19T11:30:03;17.4;;;15.6;;
70942;SDS011;59154;51.970;5.650;2022-08-19T11:35:02;18.1;;;15.9;;
70942;SDS011;59154;51.970;5.650;2022-08-19T11:40:03;18.7;;;16.5;;
70942;SDS011;59154;51.970;5.650;2022-08-19T11:45:02;20.3;;;15.9;;
70942;SDS011;59154;51.970;5.650;2022-08-19T11:50:03;17.3;;;15.5;;
70942;SDS011;59154;51.970;5.650;2022-08-19T11:55:03;19.5;;;17.1;;
70942;SDS011;59154;51.970;5.650;2022-08-19T12:00:03;20.7;;;16.7;;
70942;SDS011;59154;51.970;5.650;2022-08-19T12:05:03;18.6;;;16.7;;
70942;SDS011;59154;51.970;5.650;2022-08-19T12:10:02;19.3;;;17.4;;
70942;SDS011;59154;51.970;5.650;2022-08-19T12:15:03;19.6;;;17.6;;
70942;SDS011;59154;51.970;5.650;2022-08-19T12:20:03;19.2;;;17.0;;
70942;SDS011;59154;51.970;5.650;2022-08-19T12:25:03;18.5;;;16.8;;
70942;SDS011;59154;51.970;5.650;2022-08-19T12:30:03;18.2;;;16.3;;
70942;SDS011;59154;51.970;5.650;2022-08-19T12:35:02;17.7;;;15.9;;
70942;SDS011;59154;51.970;5.650;2022-08-19T12:40:03;19.0;;;16.8;;
70942;SDS011;59154;51.970;5.650;2022-08-19T12:45:03;20.3;;;17.0;;
70942;SDS011;59154;51.970;5.650;2022-08-19T12:50:03;19.2;;;17.3;;
70942;SDS011;59154;51.970;5.650;2022-08-19T12:55:03;16.6;;;14.8;;
70942;SDS011;59154;51.970;5.650;2022-08-19T13:00:04;18.1;;;16.2;;
70942;SDS011;59154;51.970;5.650;2022-08-19T13:05:02;17.1;;;15.3;;
70942;SDS011;59154;51.970;5.650;2022-08-19T13:10:03;16.4;;;14.8;;
70942;SDS011;59154;51.970;5.650;2022-08-19T13:15:03;18.4;;;15.8;;
70942;SDS011;59154;51.970;5.650;2022-08-19T13:20:03;16.3;;;14.6;;
70942;SDS011;59154;51.970;5.650;2022-08-19T13:25:03;15.8;;;14.1;;
70942;SDS011;59154;51.970;5.650;2022-08-19T13:30:04;15.8;;;13.3;;
70942;SDS011;59154;51.970;5.650;2022-08-19T13:35:02;20.1;;;14.3;;
70942;SDS011;59154;51.970;5.650;2022-08-19T13:40:03;15.3;;;13.7;;
70942;SDS011;59154;51.970;5.650;2022-08-19T13:45:03;18.0;;;15.0;;
70942;SDS011;59154;51.970;5.650;2022-08-19T13:50:03;16.3;;;14.4;;
70942;SDS011;59154;51.970;5.650;2022-08-19T13:55:02;20.7;;;16.2;;
70942;SDS011;59154;51.970;5.650;2022-08-19T14:00:04;17.3;;;15.4;;
70942;SDS011;59154;51.970;5.650;2022-08-19T14:05:02;16.5;;;13.6;;
70942;SDS011;59154;51.970;5.650;2022-08-19T14:10:03;14.7;;;12.7;;
70942;SDS011;59154;51.970;5.650;2022-08-19T14:15:03;10.3;;;7.6;;
70942;SDS011;59154;51.970;5.650;2022-08-19T14:20:04;9.6;;;7.6;;
70942;SDS011;59154;51.970;5.650;2022-08-19T14:25:02;6.3;;;5.0;;
70942;SDS011;59154;51.970;5.650;2022-08-19T14:30:03;4.9;;;4.0;;
70942;SDS011;59154;51.970;5.650;2022-08-19T14:35:02;6.4;;;5.0;;
70942;SDS011;59154;51.970;5.650;2022-08-19T14:40:02;7.8;;;6.9;;
70942;SDS011;59154;51.970;5.650;2022-08-19T14:45:02;6.6;;;4.2;;
70942;SDS011;59154;51.970;5.650;2022-08-19T14:50:03;13.1;;;3.7;;
70942;SDS011;59154;51.970;5.650;2022-08-19T14:55:02;4.6;;;2.6;;
70942;SDS011;59154;51.970;5.650;2022-08-19T15:00:03;4.7;;;2.1;;
70942;SDS011;59154;51.970;5.650;2022-08-19T15:05:02;5.2;;;3.8;;
70942;SDS011;59154;51.970;5.650;2022-08-19T15:10:03;5.7;;;3.9;;
70942;SDS011;59154;51.970;5.650;2022-08-19T15:15:02;6.4;;;3.8;;
70942;SDS011;59154;51.970;5.650;2022-08-19T15:20:04;3.8;;;3.3;;
70942;SDS011;59154;51.970;5.650;2022-08-19T15:25:02;3.5;;;2.9;;
70942;SDS011;59154;51.970;5.650;2022-08-19T15:30:03;2.9;;;2.6;;
70942;SDS011;59154;51.970;5.650;2022-08-19T15:35:02;3.1;;;2.6;;
70942;SDS011;59154;51.970;5.650;2022-08-19T15:40:03;4.3;;;2.5;;
70942;SDS011;59154;51.970;5.650;2022-08-19T15:45:02;3.4;;;2.4;;
70942;SDS011;59154;51.970;5.650;2022-08-19T15:50:04;3.9;;;2.6;;
70942;SDS011;59154;51.970;5.650;2022-08-19T15:55:03;4.0;;;2.6;;
70942;SDS011;59154;51.970;5.650;2022-08-19T16:00:03;3.3;;;2.4;;
70942;SDS011;59154;51.970;5.650;2022-08-19T16:05:03;5.4;;;3.6;;
70942;SDS011;59154;51.970;5.650;2022-08-19T16:10:03;5.2;;;4.2;;
70942;SDS011;59154;51.970;5.650;2022-08-19T16:15:02;6.5;;;4.6;;
70942;SDS011;59154;51.970;5.650;2022-08-19T16:20:04;5.3;;;4.6;;
70942;SDS011;59154;51.970;5.650;2022-08-19T16:25:02;5.4;;;4.9;;
70942;SDS011;59154;51.970;5.650;2022-08-19T16:30:02;5.5;;;4.7;;
70942;SDS011;59154;51.970;5.650;2022-08-19T16:35:03;7.1;;;5.3;;
70942;SDS011;59154;51.970;5.650;2022-08-19T16:40:03;7.0;;;5.4;;
70942;SDS011;59154;51.970;5.650;2022-08-19T16:45:02;7.6;;;5.3;;
70942;SDS011;59154;51.970;5.650;2022-08-19T16:50:03;7.2;;;5.3;;
70942;SDS011;59154;51.970;5.650;2022-08-19T16:55:03;6.6;;;5.1;;
70942;SDS011;59154;51.970;5.650;2022-08-19T17:00:03;6.8;;;5.4;;
70942;SDS011;59154;51.970;5.650;2022-08-19T17:05:03;7.2;;;5.1;;
70942;SDS011;59154;51.970;5.650;2022-08-19T17:10:03;7.7;;;6.0;;
70942;SDS011;59154;51.970;5.650;2022-08-19T17:15:03;6.6;;;5.3;;
70942;SDS011;59154;51.970;5.650;2022-08-19T17:20:03;5.9;;;5.3;;
70942;SDS011;59154;51.970;5.650;2022-08-19T17:25:03;6.2;;;5.6;;
70942;SDS011;59154;51.970;5.650;2022-08-19T17:30:03;7.8;;;5.3;;
70942;SDS011;59154;51.970;5.650;2022-08-19T17:35:02;6.3;;;5.5;;
70942;SDS011;59154;51.970;5.650;2022-08-19T17:40:03;5.3;;;4.7;;
70942;SDS011;59154;51.970;5.650;2022-08-19T17:45:02;6.7;;;5.6;;
70942;SDS011;59154;51.970;5.650;2022-08-19T17:50:02;7.6;;;5.2;;
70942;SDS011;59154;51.970;5.650;2022-08-19T17:55:02;6.3;;;5.3;;
70942;SDS011;59154;51.970;5.650;2022-08-19T18:00:03;7.0;;;5.3;;
70942;SDS011;59154;51.970;5.650;2022-08-19T18:05:02;6.1;;;5.5;;
70942;SDS011;59154;51.970;5.650;2022-08-19T18:10:02;7.2;;;5.3;;
70942;SDS011;59154;51.970;5.650;2022-08-19T18:15:03;6.6;;;5.2;;
70942;SDS011;59154;51.970;5.650;2022-08-19T18:20:03;8.3;;;5.7;;
70942;SDS011;59154;51.970;5.650;2022-08-19T18:25:03;6.4;;;4.8;;
70942;SDS011;59154;51.970;5.650;2022-08-19T18:30:02;6.2;;;5.0;;
70942;SDS011;59154;51.970;5.650;2022-08-19T18:35:04;5.6;;;4.7;;
70942;SDS011;59154;51.970;5.650;2022-08-19T18:40:04;5.9;;;4.5;;
70942;SDS011;59154;51.970;5.650;2022-08-19T18:45:02;4.6;;;3.2;;
70942;SDS011;59154;51.970;5.650;2022-08-19T18:50:02;4.1;;;3.3;;
70942;SDS011;59154;51.970;5.650;2022-08-19T18:55:02;5.7;;;3.0;;
70942;SDS011;59154;51.970;5.650;2022-08-19T19:00:03;4.6;;;3.3;;
70942;SDS011;59154;51.970;5.650;2022-08-19T19:05:02;5.2;;;3.7;;
70942;SDS011;59154;51.970;5.650;2022-08-19T19:10:03;7.6;;;3.9;;
70942;SDS011;59154;51.970;5.650;2022-08-19T19:15:02;5.5;;;4.2;;
70942;SDS011;59154;51.970;5.650;2022-08-19T19:20:03;7.3;;;4.6;;
70942;SDS011;59154;51.970;5.650;2022-08-19T19:25:02;7.4;;;4.7;;
70942;SDS011;59154;51.970;5.650;2022-08-19T19:30:02;5.0;;;3.8;;
70942;SDS011;59154;51.970;5.650;2022-08-19T19:35:03;5.0;;;4.1;;
70942;SDS011;59154;51.970;5.650;2022-08-19T19:40:03;7.5;;;4.1;;
70942;SDS011;59154;51.970;5.650;2022-08-19T19:45:03;5.0;;;3.4;;
70942;SDS011;59154;51.970;5.650;2022-08-19T19:50:03;6.0;;;4.1;;
70942;SDS011;59154;51.970;5.650;2022-08-19T19:55:03;4.7;;;3.8;;
70942;SDS011;59154;51.970;5.650;2022-08-19T20:00:03;4.4;;;3.4;;
70942;SDS011;59154;51.970;5.650;2022-08-19T20:05:03;6.3;;;3.2;;
70942;SDS011;59154;51.970;5.650;2022-08-19T20:10:03;4.6;;;3.2;;
70942;SDS011;59154;51.970;5.650;2022-08-19T20:15:03;4.4;;;3.1;;
70942;SDS011;59154;51.970;5.650;2022-08-19T20:20:03;3.9;;;3.0;;
70942;SDS011;59154;51.970;5.650;2022-08-19T20:25:02;3.7;;;2.9;;
70942;SDS011;59154;51.970;5.650;2022-08-19T20:30:03;5.4;;;3.3;;
70942;SDS011;59154;51.970;5.650;2022-08-19T20:35:02;5.3;;;3.7;;
70942;SDS011;59154;51.970;5.650;2022-08-19T20:40:04;4.1;;;2.8;;
70942;SDS011;59154;51.970;5.650;2022-08-19T20:45:02;4.3;;;3.1;;
70942;SDS011;59154;51.970;5.650;2022-08-19T20:50:03;6.8;;;3.9;;
70942;SDS011;59154;51.970;5.650;2022-08-19T20:55:02;6.0;;;4.1;;
70942;SDS011;59154;51.970;5.650;2022-08-19T21:00:04;6.5;;;4.2;;
70942;SDS011;59154;51.970;5.650;2022-08-19T21:05:02;6.1;;;4.6;;
70942;SDS011;59154;51.970;5.650;2022-08-19T21:10:03;5.3;;;4.6;;
70942;SDS011;59154;51.970;5.650;2022-08-19T21:15:02;6.2;;;4.8;;
70942;SDS011;59154;51.970;5.650;2022-08-19T21:20:03;6.8;;;4.5;;
70942;SDS011;59154;51.970;5.650;2022-08-19T21:25:02;6.0;;;4.8;;
70942;SDS011;59154;51.970;5.650;2022-08-19T21:30:03;5.9;;;4.8;;
70942;SDS011;59154;51.970;5.650;2022-08-19T21:35:02;5.3;;;4.5;;
70942;SDS011;59154;51.970;5.650;2022-08-19T21:40:04;6.1;;;4.9;;
70942;SDS011;59154;51.970;5.650;2022-08-19T21:45:02;5.3;;;4.8;;
70942;SDS011;59154;51.970;5.650;2022-08-19T21:50:02;6.8;;;4.8;;
70942;SDS011;59154;51.970;5.650;2022-08-19T21:55:02;6.3;;;4.8;;
70942;SDS011;59154;51.970;5.650;2022-08-19T22:00:04;7.3;;;4.8;;
70942;SDS011;59154;51.970;5.650;2022-08-19T22:05:02;6.2;;;5.3;;
70942;SDS011;59154;51.970;5.650;2022-08-19T22:10:03;5.5;;;5.0;;
70942;SDS011;59154;51.970;5.650;2022-08-19T22:15:02;6.5;;;5.2;;
70942;SDS011;59154;51.970;5.650;2022-08-19T22:20:03;6.9;;;5.0;;
70942;SDS011;59154;51.970;5.650;2022-08-19T22:25:04;6.9;;;4.7;;
70942;SDS011;59154;51.970;5.650;2022-08-19T22:30:03;7.1;;;5.6;;
70942;SDS011;59154;51.970;5.650;2022-08-19T22:35:02;7.8;;;5.7;;
70942;SDS011;59154;51.970;5.650;2022-08-19T22:40:04;6.1;;;5.1;;
70942;SDS011;59154;51.970;5.650;2022-08-19T22:45:03;5.8;;;5.2;;
70942;SDS011;59154;51.970;5.650;2022-08-19T22:50:04;7.2;;;5.5;;
70942;SDS011;59154;51.970;5.650;2022-08-19T22:55:03;7.0;;;6.3;;
70942;SDS011;59154;51.970;5.650;2022-08-19T23:00:04;7.2;;;5.2;;
70942;SDS011;59154;51.970;5.650;2022-08-19T23:05:03;7.2;;;6.1;;
70942;SDS011;59154;51.970;5.650;2022-08-19T23:10:03;7.0;;;5.3;;
70942;SDS011;59154;51.970;5.650;2022-08-19T23:15:03;7.6;;;6.8;;
70942;SDS011;59154;51.970;5.650;2022-08-19T23:20:03;7.2;;;6.1;;
70942;SDS011;59154;51.970;5.650;2022-08-19T23:25:03;8.2;;;6.8;;
70942;SDS011;59154;51.970;5.650;2022-08-19T23:30:02;7.9;;;7.0;;
70942;SDS011;59154;51.970;5.650;2022-08-19T23:35:02;10.1;;;7.0;;
70942;SDS011;59154;51.970;5.650;2022-08-19T23:40:04;10.2;;;6.9;;
70942;SDS011;59154;51.970;5.650;2022-08-19T23:45:04;8.8;;;6.8;;
70942;SDS011;59154;51.970;5.650;2022-08-19T23:50:03;8.5;;;7.0;;
70942;SDS011;59154;51.970;5.650;2022-08-19T23:55:02;10.7;;;7.7;;
